createdAt,value
2017-08-27T00:00:18.665Z,93.40
2017-08-27T00:02:46.175Z,93.40
2017-08-27T00:05:13.679Z,93.60
2017-08-27T00:07:41.710Z,93.50
2017-08-27T00:10:09.228Z,93.40
2017-08-27T00:12:36.747Z,93.40
2017-08-27T00:15:04.261Z,93.70
2017-08-27T00:17:31.801Z,93.90
2017-08-27T00:19:59.528Z,94.00
2017-08-27T00:22:27.041Z,94.00
2017-08-27T00:24:55.208Z,93.70
2017-08-27T00:27:22.787Z,93.70
2017-08-27T00:29:51.662Z,93.80
2017-08-27T00:32:20.088Z,93.90
2017-08-27T00:34:47.632Z,94.30
2017-08-27T00:37:15.219Z,94.20
2017-08-27T00:39:42.779Z,94.00
2017-08-27T00:42:10.292Z,94.30
2017-08-27T00:44:37.806Z,94.40
2017-08-27T00:47:10.538Z,94.60
2017-08-27T00:49:38.068Z,94.80
2017-08-27T00:52:06.015Z,94.80
2017-08-27T00:54:34.462Z,94.80
2017-08-27T00:57:02.006Z,94.90
2017-08-27T00:59:29.516Z,94.90
2017-08-27T01:02:01.450Z,95.20
2017-08-27T01:04:29.403Z,95.30
2017-08-27T01:06:56.966Z,95.30
2017-08-27T01:09:24.987Z,95.20
2017-08-27T01:11:52.508Z,95.20
2017-08-27T01:14:20.027Z,95.20
2017-08-27T01:16:54.763Z,95.00
2017-08-27T01:19:22.275Z,95.00
2017-08-27T01:21:49.828Z,95.00
2017-08-27T01:24:17.344Z,95.10
2017-08-27T01:26:44.918Z,95.10
2017-08-27T01:29:12.473Z,94.10
2017-08-27T01:31:40.015Z,95.00
2017-08-27T01:34:09.400Z,94.90
2017-08-27T01:36:36.971Z,94.90
2017-08-27T01:39:04.497Z,94.90
2017-08-27T01:41:33.101Z,95.10
2017-08-27T01:44:00.880Z,95.00
2017-08-27T01:46:32.243Z,95.10
2017-08-27T01:48:59.775Z,94.90
2017-08-27T01:51:27.980Z,95.00
2017-08-27T01:53:55.827Z,94.70
2017-08-27T01:56:23.550Z,94.80
2017-08-27T01:58:51.076Z,95.40
2017-08-27T02:01:18.607Z,95.20
2017-08-27T02:03:46.829Z,95.00
2017-08-27T02:06:14.407Z,95.10
2017-08-27T02:08:41.919Z,95.30
2017-08-27T02:11:10.071Z,95.60
2017-08-27T02:13:37.641Z,95.90
2017-08-27T02:16:09.847Z,95.50
2017-08-27T02:18:37.767Z,95.50
2017-08-27T02:21:05.348Z,95.30
2017-08-27T02:23:33.647Z,95.70
2017-08-27T02:26:01.169Z,95.60
2017-08-27T02:28:29.147Z,95.80
2017-08-27T02:30:56.703Z,95.90
2017-08-27T02:33:31.170Z,95.80
2017-08-27T02:35:58.716Z,95.90
2017-08-27T02:38:26.277Z,96.00
2017-08-27T02:40:53.858Z,96.00
2017-08-27T02:43:21.391Z,95.90
2017-08-27T02:45:48.926Z,95.70
2017-08-27T02:48:19.906Z,95.80
2017-08-27T02:50:47.432Z,95.70
2017-08-27T02:53:16.186Z,95.60
2017-08-27T02:55:43.703Z,95.60
2017-08-27T02:58:11.229Z,95.80
2017-08-27T03:00:38.751Z,96.30
2017-08-27T03:03:06.295Z,96.00
2017-08-27T03:05:35.717Z,96.10
2017-08-27T03:08:03.235Z,96.00
2017-08-27T03:10:30.890Z,96.00
2017-08-27T03:13:00.243Z,96.20
2017-08-27T03:15:27.750Z,96.40
2017-08-27T03:17:55.865Z,96.40
2017-08-27T03:20:24.299Z,96.70
2017-08-27T03:22:51.847Z,96.30
2017-08-27T03:25:19.369Z,96.50
2017-08-27T03:27:46.927Z,96.40
2017-08-27T03:30:14.507Z,96.20
2017-08-27T03:32:42.016Z,96.30
2017-08-27T03:35:09.529Z,95.60
2017-08-27T03:37:40.449Z,95.90
2017-08-27T03:40:09.044Z,96.00
2017-08-27T03:42:36.588Z,96.10
2017-08-27T03:45:04.098Z,96.10
2017-08-27T03:47:31.609Z,96.40
2017-08-27T03:49:59.266Z,96.60
2017-08-27T03:52:27.368Z,96.20
2017-08-27T03:54:54.873Z,96.20
2017-08-27T03:57:23.160Z,96.60
2017-08-27T03:59:51.199Z,96.60
2017-08-27T04:02:18.708Z,96.50
2017-08-27T04:04:46.488Z,96.70
2017-08-27T04:07:13.996Z,96.60
2017-08-27T04:09:41.515Z,96.10
2017-08-27T04:12:09.043Z,95.80
2017-08-27T04:14:36.891Z,95.90
2017-08-27T04:17:06.102Z,96.50
2017-08-27T04:19:33.614Z,96.50
2017-08-27T04:22:01.136Z,96.00
2017-08-27T04:24:28.647Z,95.70
2017-08-27T04:26:56.163Z,95.50
2017-08-27T04:29:24.750Z,95.30
2017-08-27T04:31:52.268Z,95.40
2017-08-27T04:34:19.776Z,95.30
2017-08-27T04:36:49.380Z,95.30
2017-08-27T04:39:17.805Z,95.20
2017-08-27T04:41:45.368Z,94.80
2017-08-27T04:44:12.921Z,94.80
2017-08-27T04:46:40.481Z,94.80
2017-08-27T04:49:08.635Z,94.90
2017-08-27T04:51:40.164Z,95.10
2017-08-27T04:54:07.844Z,95.60
2017-08-27T04:56:35.387Z,95.40
2017-08-27T04:59:04.086Z,95.50
2017-08-27T05:01:31.617Z,95.40
2017-08-27T05:03:59.127Z,95.30
2017-08-27T05:06:26.639Z,95.30
2017-08-27T05:08:54.155Z,95.20
2017-08-27T05:11:22.614Z,95.10
2017-08-27T05:13:50.173Z,95.40
2017-08-27T05:16:17.692Z,95.10
2017-08-27T05:18:45.294Z,94.50
2017-08-27T05:21:13.380Z,94.50
2017-08-27T05:23:41.851Z,94.50
2017-08-27T05:26:09.443Z,94.60
2017-08-27T05:28:36.954Z,94.60
2017-08-27T05:31:04.480Z,94.40
2017-08-27T05:33:32.123Z,94.70
2017-08-27T05:36:03.988Z,94.80
2017-08-27T05:38:31.507Z,94.40
2017-08-27T05:40:59.056Z,94.30
2017-08-27T05:43:26.616Z,94.60
2017-08-27T05:45:54.136Z,94.40
2017-08-27T05:48:21.648Z,94.00
2017-08-27T05:50:49.199Z,93.70
2017-08-27T05:53:16.749Z,93.90
2017-08-27T05:55:44.279Z,93.70
2017-08-27T05:58:12.619Z,93.50
2017-08-27T06:00:40.154Z,93.50
2017-08-27T06:03:07.675Z,93.10
2017-08-27T06:05:38.961Z,93.00
2017-08-27T06:08:07.000Z,92.90
2017-08-27T06:10:35.130Z,92.70
2017-08-27T06:13:02.643Z,93.00
2017-08-27T06:15:30.170Z,93.10
2017-08-27T06:17:57.740Z,93.00
2017-08-27T06:20:25.259Z,92.90
2017-08-27T06:23:00.916Z,92.70
2017-08-27T06:25:28.495Z,92.50
2017-08-27T06:27:56.012Z,92.30
2017-08-27T06:30:24.459Z,92.30
2017-08-27T06:32:52.032Z,92.00
2017-08-27T06:35:19.547Z,91.70
2017-08-27T06:37:50.292Z,91.30
2017-08-27T06:40:17.835Z,90.90
2017-08-27T06:42:45.344Z,90.90
2017-08-27T06:45:14.540Z,89.60
2017-08-27T06:47:42.051Z,89.50
2017-08-27T06:50:09.559Z,89.60
2017-08-27T06:52:38.762Z,88.30
2017-08-27T06:55:06.284Z,88.20
2017-08-27T06:57:33.809Z,88.00
2017-08-27T07:00:01.315Z,89.20
2017-08-27T07:02:29.180Z,89.70
2017-08-27T07:04:56.695Z,90.10
2017-08-27T07:07:25.092Z,89.70
2017-08-27T07:09:53.584Z,89.30
2017-08-27T07:12:21.106Z,87.70
2017-08-27T07:14:49.390Z,85.30
2017-08-27T07:17:16.959Z,85.30
2017-08-27T07:19:44.488Z,83.90
2017-08-27T07:22:12.021Z,81.50
2017-08-27T07:24:39.528Z,79.00
2017-08-27T07:27:07.044Z,77.30
2017-08-27T07:29:34.554Z,77.30
2017-08-27T07:32:02.090Z,76.30
2017-08-27T07:34:31.284Z,75.90
2017-08-27T07:37:00.664Z,75.90
2017-08-27T07:39:32.169Z,76.50
2017-08-27T07:41:59.719Z,77.60
2017-08-27T07:44:27.240Z,79.50
2017-08-27T07:46:54.759Z,81.40
2017-08-27T07:49:22.309Z,82.90
2017-08-27T07:51:50.413Z,83.20
2017-08-27T07:54:21.587Z,84.10
2017-08-27T07:56:49.859Z,84.90
2017-08-27T07:59:17.407Z,84.80
2017-08-27T08:01:45.484Z,85.60
2017-08-27T08:04:13.451Z,86.10
2017-08-27T08:06:44.660Z,86.50
2017-08-27T08:09:12.175Z,85.30
2017-08-27T08:11:40.493Z,83.50
2017-08-27T08:14:07.999Z,83.60
2017-08-27T08:16:35.584Z,82.50
2017-08-27T08:19:04.786Z,78.10
2017-08-27T08:21:32.296Z,77.40
2017-08-27T08:23:59.802Z,72.10
2017-08-27T08:26:28.140Z,63.60
2017-08-27T08:28:55.656Z,63.50
2017-08-27T08:31:24.116Z,60.30
2017-08-27T08:33:51.628Z,60.50
2017-08-27T08:36:19.135Z,61.50
2017-08-27T08:38:46.643Z,64.90
2017-08-27T08:41:14.244Z,64.70
2017-08-27T08:43:41.760Z,62.60
2017-08-27T08:46:09.268Z,63.40
2017-08-27T08:48:37.760Z,64.20
2017-08-27T08:51:06.048Z,65.80
2017-08-27T08:53:36.197Z,65.90
2017-08-27T08:56:03.706Z,65.80
2017-08-27T08:58:31.229Z,61.20
2017-08-27T09:00:59.186Z,60.70
2017-08-27T09:03:27.227Z,59.80
2017-08-27T09:05:55.647Z,55.80
2017-08-27T09:08:27.708Z,54.30
2017-08-27T09:10:55.250Z,51.80
2017-08-27T09:13:22.784Z,48.60
2017-08-27T09:15:51.198Z,45.40
2017-08-27T09:18:18.760Z,43.60
2017-08-27T09:20:47.183Z,40.50
2017-08-27T09:23:18.284Z,39.10
2017-08-27T09:25:45.796Z,39.70
2017-08-27T09:28:13.305Z,38.70
2017-08-27T09:30:40.892Z,37.80
2017-08-27T09:33:08.406Z,38.20
2017-08-27T09:35:36.748Z,39.50
2017-08-27T09:38:04.307Z,39.00
2017-08-27T09:40:31.821Z,38.00
2017-08-27T09:43:03.489Z,37.30
2017-08-27T09:45:33.711Z,32.30
2017-08-27T09:48:01.728Z,32.10
2017-08-27T09:50:29.235Z,30.20
2017-08-27T09:52:56.741Z,29.50
2017-08-27T09:55:24.249Z,29.50
2017-08-27T09:57:51.756Z,29.30
2017-08-27T10:00:20.027Z,28.60
2017-08-27T10:02:47.569Z,28.60
2017-08-27T10:05:15.675Z,28.00
2017-08-27T10:07:43.179Z,28.50
2017-08-27T10:10:10.687Z,28.00
2017-08-27T10:12:38.187Z,27.80
2017-08-27T10:15:05.696Z,27.70
2017-08-27T10:17:33.214Z,27.10
2017-08-27T10:20:00.722Z,26.30
2017-08-27T10:22:29.954Z,26.20
2017-08-27T10:24:57.450Z,26.00
2017-08-27T10:27:25.399Z,25.90
2017-08-27T10:29:53.424Z,26.10
2017-08-27T10:32:20.935Z,25.20
2017-08-27T10:34:48.436Z,24.80
2017-08-27T10:37:15.963Z,25.00
2017-08-27T10:39:45.767Z,25.30
2017-08-27T10:42:13.271Z,24.90
2017-08-27T10:44:40.778Z,23.70
2017-08-27T10:47:08.708Z,23.60
2017-08-27T10:49:36.595Z,23.50
2017-08-27T10:52:04.920Z,23.00
2017-08-27T10:54:32.435Z,23.00
2017-08-27T10:57:00.708Z,23.00
2017-08-27T10:59:28.263Z,23.00
2017-08-27T11:01:57.459Z,24.10
2017-08-27T11:04:24.973Z,23.40
2017-08-27T11:06:52.524Z,22.70
2017-08-27T11:09:20.057Z,22.80
2017-08-27T11:11:47.599Z,23.40
2017-08-27T11:14:18.574Z,26.00
2017-08-27T11:16:46.356Z,27.90
2017-08-27T11:19:13.891Z,29.20
2017-08-27T11:21:41.436Z,29.30
2017-08-27T11:24:08.973Z,30.00
2017-08-27T11:26:36.496Z,29.50
2017-08-27T11:29:04.064Z,30.30
2017-08-27T11:31:32.549Z,31.00
2017-08-27T11:34:00.093Z,31.00
2017-08-27T11:36:27.592Z,30.90
2017-08-27T11:38:55.143Z,30.90
2017-08-27T11:41:23.559Z,31.20
2017-08-27T11:43:51.995Z,30.60
2017-08-27T11:46:19.524Z,30.00
2017-08-27T11:48:47.090Z,28.60
2017-08-27T11:51:14.684Z,26.60
2017-08-27T11:53:42.260Z,26.50
2017-08-27T11:56:09.759Z,25.50
2017-08-27T11:58:41.670Z,24.70
2017-08-27T12:01:09.180Z,23.10
2017-08-27T12:03:36.732Z,23.90
2017-08-27T12:06:04.278Z,25.00
2017-08-27T12:08:31.773Z,26.80
2017-08-27T12:11:02.316Z,27.30
2017-08-27T12:13:30.758Z,27.90
2017-08-27T12:15:59.040Z,29.50
2017-08-27T12:18:26.568Z,29.50
2017-08-27T12:20:54.069Z,29.90
2017-08-27T12:23:22.572Z,29.80
2017-08-27T12:25:50.105Z,31.50
2017-08-27T12:28:19.444Z,31.30
2017-08-27T12:30:48.460Z,30.30
2017-08-27T12:33:15.995Z,30.20
2017-08-27T12:35:44.409Z,29.20
2017-08-27T12:38:12.906Z,27.90
2017-08-27T12:40:40.420Z,27.90
2017-08-27T12:43:14.664Z,27.90
2017-08-27T12:45:43.123Z,28.00
2017-08-27T12:48:10.893Z,27.80
2017-08-27T12:50:38.402Z,28.90
2017-08-27T12:53:05.957Z,30.20
2017-08-27T12:55:33.476Z,31.70
2017-08-27T12:58:01.740Z,33.70
2017-08-27T13:00:29.286Z,33.80
2017-08-27T13:02:56.793Z,34.40
2017-08-27T13:05:25.118Z,36.70
2017-08-27T13:07:52.648Z,36.70
2017-08-27T13:10:21.834Z,36.60
2017-08-27T13:12:52.441Z,36.50
2017-08-27T13:15:19.983Z,36.50
2017-08-27T13:17:47.548Z,36.70
2017-08-27T13:20:16.034Z,37.50
2017-08-27T13:22:44.037Z,37.20
2017-08-27T13:25:11.649Z,36.00
2017-08-27T13:27:39.775Z,35.70
2017-08-27T13:30:08.077Z,37.20
2017-08-27T13:32:36.352Z,38.20
2017-08-27T13:35:03.876Z,38.10
2017-08-27T13:37:31.432Z,38.50
2017-08-27T13:39:59.440Z,38.20
2017-08-27T13:42:26.992Z,39.00
2017-08-27T13:44:55.252Z,38.70
2017-08-27T13:47:22.836Z,38.90
2017-08-27T13:49:50.679Z,38.80
2017-08-27T13:52:18.979Z,39.00
2017-08-27T13:54:46.523Z,40.50
2017-08-27T13:57:14.032Z,41.10
2017-08-27T13:59:41.590Z,42.00
2017-08-27T14:02:09.232Z,40.80
2017-08-27T14:04:37.585Z,41.10
2017-08-27T14:07:05.128Z,42.60
2017-08-27T14:09:32.835Z,42.30
2017-08-27T14:12:00.347Z,42.80
2017-08-27T14:14:28.496Z,42.80
2017-08-27T14:16:56.926Z,41.70
2017-08-27T14:19:24.502Z,42.20
2017-08-27T14:21:52.020Z,42.60
2017-08-27T14:24:19.524Z,43.00
2017-08-27T14:26:47.476Z,43.00
2017-08-27T14:29:15.655Z,43.20
2017-08-27T14:31:43.952Z,43.70
2017-08-27T14:34:11.478Z,43.70
2017-08-27T14:36:39.188Z,44.20
2017-08-27T14:39:07.271Z,43.80
2017-08-27T14:41:35.260Z,44.60
2017-08-27T14:44:02.780Z,44.20
2017-08-27T14:46:30.302Z,44.40
2017-08-27T14:48:57.821Z,44.90
2017-08-27T14:51:25.328Z,44.90
2017-08-27T14:53:53.709Z,46.20
2017-08-27T14:56:21.220Z,47.20
2017-08-27T14:58:50.023Z,47.10
2017-08-27T15:01:17.523Z,47.20
2017-08-27T15:03:45.968Z,47.40
2017-08-27T15:06:13.488Z,47.70
2017-08-27T15:08:40.979Z,48.60
2017-08-27T15:11:08.539Z,48.70
2017-08-27T15:13:37.782Z,49.30
2017-08-27T15:16:06.112Z,49.40
2017-08-27T15:18:33.628Z,50.70
2017-08-27T15:21:01.139Z,50.70
2017-08-27T15:23:28.648Z,51.40
2017-08-27T15:25:57.113Z,51.50
2017-08-27T15:28:24.691Z,52.50
2017-08-27T15:30:52.198Z,51.30
2017-08-27T15:33:19.705Z,51.90
2017-08-27T15:35:48.022Z,52.50
2017-08-27T15:38:16.249Z,52.50
2017-08-27T15:40:44.149Z,53.60
2017-08-27T15:43:11.688Z,54.00
2017-08-27T15:45:39.248Z,53.20
2017-08-27T15:48:06.802Z,55.50
2017-08-27T15:50:34.300Z,56.30
2017-08-27T15:53:01.832Z,55.20
2017-08-27T15:55:30.095Z,55.10
2017-08-27T15:57:57.679Z,56.10
2017-08-27T16:00:25.655Z,55.00
2017-08-27T16:02:53.159Z,55.30
2017-08-27T16:05:20.711Z,54.60
2017-08-27T16:07:49.198Z,54.30
2017-08-27T16:10:16.719Z,54.80
2017-08-27T16:12:45.401Z,56.70
2017-08-27T16:15:16.136Z,56.70
2017-08-27T16:17:44.924Z,56.70
2017-08-27T16:20:12.463Z,57.40
2017-08-27T16:22:40.008Z,57.50
2017-08-27T16:25:08.451Z,57.40
2017-08-27T16:27:35.953Z,58.60
2017-08-27T16:30:06.720Z,58.70
2017-08-27T16:32:34.219Z,59.80
2017-08-27T16:35:01.742Z,60.90
2017-08-27T16:37:29.240Z,61.40
2017-08-27T16:39:57.299Z,61.40
2017-08-27T16:42:24.852Z,62.50
2017-08-27T16:44:52.534Z,62.90
2017-08-27T16:47:31.949Z,63.00
2017-08-27T16:49:59.522Z,63.30
2017-08-27T16:52:27.447Z,64.50
2017-08-27T16:54:54.993Z,64.80
2017-08-27T16:57:22.527Z,65.10
2017-08-27T16:59:50.867Z,65.60
2017-08-27T17:02:18.382Z,65.40
2017-08-27T17:04:45.948Z,63.70
2017-08-27T17:07:13.455Z,63.80
2017-08-27T17:09:41.032Z,63.80
2017-08-27T17:12:08.548Z,63.40
2017-08-27T17:14:36.257Z,64.10
2017-08-27T17:17:07.322Z,63.70
2017-08-27T17:19:35.307Z,64.60
2017-08-27T17:22:02.807Z,64.10
2017-08-27T17:24:30.322Z,64.60
2017-08-27T17:26:57.868Z,65.80
2017-08-27T17:29:25.408Z,67.50
2017-08-27T17:31:52.916Z,68.00
2017-08-27T17:34:21.171Z,68.90
2017-08-27T17:36:48.682Z,69.30
2017-08-27T17:39:16.236Z,70.30
2017-08-27T17:41:43.749Z,70.00
2017-08-27T17:44:11.251Z,71.00
2017-08-27T17:46:42.255Z,71.10
2017-08-27T17:49:11.875Z,70.90
2017-08-27T17:51:39.393Z,71.90
2017-08-27T17:54:06.899Z,72.40
2017-08-27T17:56:34.408Z,73.20
2017-08-27T17:59:01.931Z,74.00
2017-08-27T18:01:32.095Z,75.10
2017-08-27T18:04:00.466Z,75.00
2017-08-27T18:06:27.995Z,74.80
2017-08-27T18:08:56.295Z,76.30
2017-08-27T18:11:24.751Z,76.30
2017-08-27T18:13:53.497Z,77.60
2017-08-27T18:16:21.023Z,79.70
2017-08-27T18:18:49.268Z,79.60
2017-08-27T18:21:17.956Z,80.70
2017-08-27T18:23:45.522Z,79.10
2017-08-27T18:26:13.032Z,81.00
2017-08-27T18:28:40.538Z,80.20
2017-08-27T18:31:08.768Z,81.30
2017-08-27T18:33:36.274Z,81.50
2017-08-27T18:36:03.777Z,80.60
2017-08-27T18:38:31.292Z,80.10
2017-08-27T18:40:58.816Z,79.80
2017-08-27T18:43:26.328Z,79.60
2017-08-27T18:45:54.848Z,79.10
2017-08-27T18:48:22.360Z,80.10
2017-08-27T18:50:50.924Z,81.00
2017-08-27T18:53:18.496Z,79.70
2017-08-27T18:55:47.744Z,81.30
2017-08-27T18:58:15.264Z,84.00
2017-08-27T19:00:42.907Z,84.00
2017-08-27T19:03:13.496Z,84.60
2017-08-27T19:05:41.004Z,82.00
2017-08-27T19:08:08.584Z,83.40
2017-08-27T19:10:36.167Z,82.00
2017-08-27T19:13:03.793Z,84.00
2017-08-27T19:15:31.371Z,83.50
2017-08-27T19:17:58.884Z,82.80
2017-08-27T19:20:27.316Z,83.20
2017-08-27T19:22:56.269Z,81.00
2017-08-27T19:25:25.586Z,83.50
2017-08-27T19:27:53.285Z,83.50
2017-08-27T19:30:20.845Z,83.30
2017-08-27T19:32:48.446Z,84.30
2017-08-27T19:35:20.053Z,84.30
2017-08-27T19:37:47.692Z,83.00
2017-08-27T19:40:15.255Z,84.40
2017-08-27T19:42:42.884Z,84.80
2017-08-27T19:45:11.216Z,83.60
2017-08-27T19:47:40.456Z,84.30
2017-08-27T19:50:15.423Z,84.30
2017-08-27T19:52:43.350Z,85.10
2017-08-27T19:55:10.879Z,85.30
2017-08-27T19:57:38.632Z,83.20
2017-08-27T20:00:06.296Z,82.40
2017-08-27T20:02:35.529Z,82.40
2017-08-27T20:05:03.083Z,82.30
2017-08-27T20:07:30.611Z,82.60
2017-08-27T20:09:58.125Z,83.00
2017-08-27T20:12:25.660Z,83.00
2017-08-27T20:14:54.111Z,83.70
2017-08-27T20:17:22.455Z,84.90
2017-08-27T20:19:49.989Z,84.90
2017-08-27T20:22:19.808Z,85.00
2017-08-27T20:24:47.349Z,84.90
2017-08-27T20:27:14.928Z,84.70
2017-08-27T20:29:42.470Z,84.50
2017-08-27T20:32:09.978Z,84.60
2017-08-27T20:34:41.702Z,84.90
2017-08-27T20:37:09.212Z,84.90
2017-08-27T20:39:39.042Z,85.20
2017-08-27T20:42:07.624Z,85.20
2017-08-27T20:44:35.135Z,85.30
2017-08-27T20:47:03.444Z,85.70
2017-08-27T20:49:31.012Z,85.80
2017-08-27T20:51:58.540Z,86.50
2017-08-27T20:54:26.051Z,86.80
2017-08-27T20:56:54.340Z,86.10
2017-08-27T20:59:23.060Z,86.90
2017-08-27T21:01:50.585Z,86.80
2017-08-27T21:04:18.832Z,86.70
2017-08-27T21:06:47.291Z,86.70
2017-08-27T21:09:14.851Z,86.80
2017-08-27T21:11:42.366Z,86.90
2017-08-27T21:14:10.292Z,87.00
2017-08-27T21:16:37.835Z,86.80
2017-08-27T21:19:06.326Z,86.40
2017-08-27T21:21:33.853Z,86.50
2017-08-27T21:24:02.876Z,86.80
2017-08-27T21:26:30.431Z,87.00
2017-08-27T21:28:57.972Z,87.30
2017-08-27T21:31:25.708Z,87.90
2017-08-27T21:33:53.260Z,87.80
2017-08-27T21:36:24.508Z,87.60
2017-08-27T21:38:52.066Z,87.90
2017-08-27T21:41:21.284Z,87.40
2017-08-27T21:43:48.849Z,87.30
2017-08-27T21:46:16.388Z,87.60
2017-08-27T21:48:43.903Z,87.90
2017-08-27T21:51:14.745Z,88.50
2017-08-27T21:53:42.261Z,89.10
2017-08-27T21:56:10.103Z,89.00
2017-08-27T21:58:37.682Z,89.20
2017-08-27T22:01:05.251Z,89.40
2017-08-27T22:03:32.796Z,89.50
2017-08-27T22:06:01.088Z,89.70
2017-08-27T22:08:28.958Z,89.70
2017-08-27T22:10:56.495Z,89.70
2017-08-27T22:13:24.039Z,90.00
2017-08-27T22:15:52.085Z,90.10
2017-08-27T22:18:19.604Z,90.40
2017-08-27T22:20:47.958Z,90.50
2017-08-27T22:23:15.508Z,90.60
2017-08-27T22:25:43.061Z,90.30
2017-08-27T22:28:10.587Z,90.40
2017-08-27T22:30:38.155Z,90.60
2017-08-27T22:33:05.705Z,91.00
2017-08-27T22:35:33.231Z,90.60
2017-08-27T22:38:04.313Z,90.70
2017-08-27T22:40:31.832Z,90.80
2017-08-27T22:42:59.361Z,90.80
2017-08-27T22:45:26.923Z,90.80
2017-08-27T22:47:54.435Z,90.70
2017-08-27T22:50:22.520Z,90.40
2017-08-27T22:52:55.026Z,90.40
2017-08-27T22:55:26.457Z,90.50
2017-08-27T22:57:54.480Z,90.50
2017-08-27T23:00:22.004Z,91.30
2017-08-27T23:02:49.857Z,91.40
2017-08-27T23:05:17.520Z,91.50
2017-08-27T23:07:45.083Z,91.40
2017-08-27T23:10:12.646Z,91.50
2017-08-27T23:12:41.032Z,91.60
2017-08-27T23:15:08.557Z,92.20
2017-08-27T23:17:36.117Z,92.60
2017-08-27T23:20:04.395Z,92.20
2017-08-27T23:22:31.955Z,92.20
2017-08-27T23:24:59.819Z,92.00
2017-08-27T23:27:27.412Z,91.80
2017-08-27T23:29:54.928Z,91.90
2017-08-27T23:32:22.445Z,91.70
2017-08-27T23:34:50.002Z,91.60
2017-08-27T23:37:25.288Z,91.60
2017-08-27T23:39:53.149Z,91.60
2017-08-27T23:42:20.715Z,91.50
2017-08-27T23:44:48.247Z,91.20
2017-08-27T23:47:15.822Z,91.30
2017-08-27T23:49:44.312Z,91.60
2017-08-27T23:52:12.685Z,91.80
2017-08-27T23:54:43.781Z,91.80
2017-08-27T23:57:11.287Z,92.00
2017-08-27T23:59:39.151Z,92.30
